Аэропорт
Сыктывкар (UUYY)

 UUYY / SCW
ЗЦ Санкт-Петербург
Сыктывкар (UUYY)
Сыктывкар (UUYY)
 61.64700, 50.84510  / 342 ft

 UUYY 242100Z VRB02MPS CAVOK 06/M01 Q1021 R36/CLRD61 NOSIG RMK QFE757/1009
 TAF UUYY 240800Z 2409/2509 36006G12MPS 9999 BKN020CB TEMPO 2409/2412 35014MPS 4000 -SHRA BKN012CB BECMG 2414/2416 33003G08MPS BECMG 2503/2505 36005G12MPS
показать схемы

Аэродром "Сыктывкар" (UUYY)

Рекомендованные сценарии:

FS2004 от Aniter

P3D/FSX от Aniter 

Схемы:

АИП

Средства связи ОВД:

UUYY_R_APP - Сивкар-Круг - 124.600

UUYY_TWR - Сивкар-Старт - 124.600

UUYY_ATIS - Сивкар-АТИС (русский, английский) - 126.600



2017 © VATRUS division